sensor_id;sensor_type;location;lat;lon;timestamp;P1;durP1;ratioP1;P2;durP2;ratioP2
67757;SDS011;54562;47.620;18.786;2022-09-09T00:00:59;4.70;;;2.60;;
67757;SDS011;54562;47.620;18.786;2022-09-09T00:04:17;5.70;;;2.80;;
67757;SDS011;54562;47.620;18.786;2022-09-09T00:07:43;4.90;;;2.50;;
67757;SDS011;54562;47.620;18.786;2022-09-09T00:10:56;5.60;;;2.70;;
67757;SDS011;54562;47.620;18.786;2022-09-09T00:14:16;5.20;;;2.80;;
67757;SDS011;54562;47.620;18.786;2022-09-09T00:17:38;5.50;;;2.70;;
67757;SDS011;54562;47.620;18.786;2022-09-09T00:20:54;5.30;;;2.70;;
67757;SDS011;54562;47.620;18.786;2022-09-09T00:24:14;6.00;;;3.00;;
67757;SDS011;54562;47.620;18.786;2022-09-09T00:27:40;5.60;;;2.60;;
67757;SDS011;54562;47.620;18.786;2022-09-09T00:30:53;4.90;;;2.70;;
67757;SDS011;54562;47.620;18.786;2022-09-09T00:34:14;5.10;;;2.60;;
67757;SDS011;54562;47.620;18.786;2022-09-09T00:37:28;6.20;;;2.60;;
67757;SDS011;54562;47.620;18.786;2022-09-09T00:40:48;5.10;;;2.60;;
67757;SDS011;54562;47.620;18.786;2022-09-09T00:44:03;5.20;;;2.60;;
67757;SDS011;54562;47.620;18.786;2022-09-09T00:47:45;6.80;;;2.70;;
67757;SDS011;54562;47.620;18.786;2022-09-09T00:50:59;5.70;;;3.00;;
67757;SDS011;54562;47.620;18.786;2022-09-09T00:54:30;4.60;;;2.60;;
67757;SDS011;54562;47.620;18.786;2022-09-09T00:57:46;5.10;;;3.00;;
67757;SDS011;54562;47.620;18.786;2022-09-09T01:01:00;5.70;;;3.00;;
67757;SDS011;54562;47.620;18.786;2022-09-09T01:04:16;7.90;;;3.00;;
67757;SDS011;54562;47.620;18.786;2022-09-09T01:07:33;6.30;;;3.10;;
67757;SDS011;54562;47.620;18.786;2022-09-09T01:10:47;6.00;;;3.10;;
67757;SDS011;54562;47.620;18.786;2022-09-09T01:14:02;5.80;;;3.00;;
67757;SDS011;54562;47.620;18.786;2022-09-09T01:17:19;5.20;;;2.90;;
67757;SDS011;54562;47.620;18.786;2022-09-09T01:20:36;5.60;;;3.10;;
67757;SDS011;54562;47.620;18.786;2022-09-09T01:24:08;7.20;;;3.20;;
67757;SDS011;54562;47.620;18.786;2022-09-09T01:27:26;7.00;;;3.30;;
67757;SDS011;54562;47.620;18.786;2022-09-09T01:30:34;6.30;;;3.30;;
67757;SDS011;54562;47.620;18.786;2022-09-09T01:33:45;6.30;;;3.20;;
67757;SDS011;54562;47.620;18.786;2022-09-09T01:36:57;7.10;;;3.20;;
67757;SDS011;54562;47.620;18.786;2022-09-09T01:40:09;6.20;;;3.70;;
67757;SDS011;54562;47.620;18.786;2022-09-09T01:43:21;6.10;;;3.30;;
67757;SDS011;54562;47.620;18.786;2022-09-09T01:46:30;8.20;;;3.80;;
67757;SDS011;54562;47.620;18.786;2022-09-09T01:49:38;6.90;;;3.10;;
67757;SDS011;54562;47.620;18.786;2022-09-09T01:52:48;5.60;;;3.20;;
67757;SDS011;54562;47.620;18.786;2022-09-09T01:56:07;5.80;;;3.20;;
67757;SDS011;54562;47.620;18.786;2022-09-09T01:59:36;7.10;;;3.30;;
67757;SDS011;54562;47.620;18.786;2022-09-09T02:03:00;6.00;;;3.50;;
67757;SDS011;54562;47.620;18.786;2022-09-09T02:06:27;6.40;;;3.60;;
67757;SDS011;54562;47.620;18.786;2022-09-09T02:09:37;5.70;;;3.60;;
67757;SDS011;54562;47.620;18.786;2022-09-09T02:12:55;6.90;;;3.70;;
67757;SDS011;54562;47.620;18.786;2022-09-09T02:16:10;6.80;;;3.80;;
67757;SDS011;54562;47.620;18.786;2022-09-09T02:19:27;7.00;;;3.80;;
67757;SDS011;54562;47.620;18.786;2022-09-09T02:22:41;6.00;;;3.80;;
67757;SDS011;54562;47.620;18.786;2022-09-09T02:25:53;8.80;;;3.90;;
67757;SDS011;54562;47.620;18.786;2022-09-09T02:29:08;6.40;;;4.30;;
67757;SDS011;54562;47.620;18.786;2022-09-09T02:32:22;7.20;;;4.20;;
67757;SDS011;54562;47.620;18.786;2022-09-09T02:35:36;8.60;;;4.70;;
67757;SDS011;54562;47.620;18.786;2022-09-09T02:38:47;8.60;;;4.30;;
67757;SDS011;54562;47.620;18.786;2022-09-09T02:41:59;7.60;;;4.50;;
67757;SDS011;54562;47.620;18.786;2022-09-09T02:45:11;11.60;;;4.70;;
67757;SDS011;54562;47.620;18.786;2022-09-09T02:48:27;6.80;;;4.60;;
67757;SDS011;54562;47.620;18.786;2022-09-09T02:51:49;11.20;;;4.70;;
67757;SDS011;54562;47.620;18.786;2022-09-09T02:55:09;8.60;;;4.40;;
67757;SDS011;54562;47.620;18.786;2022-09-09T02:58:24;7.00;;;4.40;;
67757;SDS011;54562;47.620;18.786;2022-09-09T03:01:33;7.10;;;4.60;;
67757;SDS011;54562;47.620;18.786;2022-09-09T03:04:42;7.20;;;4.60;;
67757;SDS011;54562;47.620;18.786;2022-09-09T03:07:55;7.70;;;5.00;;
67757;SDS011;54562;47.620;18.786;2022-09-09T03:11:04;7.30;;;4.90;;
67757;SDS011;54562;47.620;18.786;2022-09-09T03:14:14;7.70;;;5.20;;
67757;SDS011;54562;47.620;18.786;2022-09-09T03:17:29;7.50;;;5.10;;
67757;SDS011;54562;47.620;18.786;2022-09-09T03:20:37;8.70;;;5.70;;
67757;SDS011;54562;47.620;18.786;2022-09-09T03:23:48;8.30;;;6.00;;
67757;SDS011;54562;47.620;18.786;2022-09-09T03:26:57;9.20;;;6.10;;
67757;SDS011;54562;47.620;18.786;2022-09-09T03:30:07;8.50;;;6.50;;
67757;SDS011;54562;47.620;18.786;2022-09-09T03:33:19;8.80;;;6.40;;
67757;SDS011;54562;47.620;18.786;2022-09-09T03:36:28;8.60;;;6.50;;
67757;SDS011;54562;47.620;18.786;2022-09-09T03:39:37;10.00;;;6.40;;
67757;SDS011;54562;47.620;18.786;2022-09-09T03:42:46;8.30;;;6.30;;
67757;SDS011;54562;47.620;18.786;2022-09-09T03:45:55;10.10;;;6.90;;
67757;SDS011;54562;47.620;18.786;2022-09-09T03:49:03;9.70;;;6.80;;
67757;SDS011;54562;47.620;18.786;2022-09-09T03:52:12;9.20;;;6.60;;
67757;SDS011;54562;47.620;18.786;2022-09-09T03:55:27;10.60;;;6.40;;
67757;SDS011;54562;47.620;18.786;2022-09-09T03:58:36;9.30;;;6.50;;
67757;SDS011;54562;47.620;18.786;2022-09-09T04:01:44;9.70;;;6.50;;
67757;SDS011;54562;47.620;18.786;2022-09-09T04:04:53;9.00;;;6.80;;
67757;SDS011;54562;47.620;18.786;2022-09-09T04:08:01;9.10;;;6.70;;
67757;SDS011;54562;47.620;18.786;2022-09-09T04:11:10;9.10;;;6.60;;
67757;SDS011;54562;47.620;18.786;2022-09-09T04:14:19;10.40;;;6.40;;
67757;SDS011;54562;47.620;18.786;2022-09-09T04:17:28;9.40;;;6.50;;
67757;SDS011;54562;47.620;18.786;2022-09-09T04:20:37;10.10;;;6.60;;
67757;SDS011;54562;47.620;18.786;2022-09-09T04:23:45;8.70;;;6.10;;
67757;SDS011;54562;47.620;18.786;2022-09-09T04:26:53;9.30;;;6.30;;
67757;SDS011;54562;47.620;18.786;2022-09-09T04:30:02;14.20;;;6.40;;
67757;SDS011;54562;47.620;18.786;2022-09-09T04:33:12;8.60;;;6.00;;
67757;SDS011;54562;47.620;18.786;2022-09-09T04:36:22;8.40;;;6.00;;
67757;SDS011;54562;47.620;18.786;2022-09-09T04:39:30;9.20;;;5.90;;
67757;SDS011;54562;47.620;18.786;2022-09-09T04:42:39;8.20;;;5.70;;
67757;SDS011;54562;47.620;18.786;2022-09-09T04:45:50;9.30;;;5.80;;
67757;SDS011;54562;47.620;18.786;2022-09-09T04:48:59;9.10;;;5.90;;
67757;SDS011;54562;47.620;18.786;2022-09-09T04:52:08;11.40;;;6.70;;
67757;SDS011;54562;47.620;18.786;2022-09-09T04:55:16;11.10;;;5.90;;
67757;SDS011;54562;47.620;18.786;2022-09-09T04:58:25;7.90;;;5.40;;
67757;SDS011;54562;47.620;18.786;2022-09-09T05:01:33;8.90;;;6.10;;
67757;SDS011;54562;47.620;18.786;2022-09-09T05:04:42;8.40;;;5.80;;
67757;SDS011;54562;47.620;18.786;2022-09-09T05:07:50;8.20;;;5.70;;
67757;SDS011;54562;47.620;18.786;2022-09-09T05:10:58;8.80;;;5.90;;
67757;SDS011;54562;47.620;18.786;2022-09-09T05:14:07;8.10;;;5.70;;
67757;SDS011;54562;47.620;18.786;2022-09-09T05:17:17;9.70;;;6.10;;
67757;SDS011;54562;47.620;18.786;2022-09-09T05:20:26;8.60;;;5.90;;
67757;SDS011;54562;47.620;18.786;2022-09-09T05:23:35;9.70;;;5.90;;
67757;SDS011;54562;47.620;18.786;2022-09-09T05:26:45;8.60;;;6.30;;
67757;SDS011;54562;47.620;18.786;2022-09-09T05:29:53;9.30;;;5.10;;
67757;SDS011;54562;47.620;18.786;2022-09-09T05:33:02;9.10;;;5.80;;
67757;SDS011;54562;47.620;18.786;2022-09-09T05:36:12;8.90;;;5.70;;
67757;SDS011;54562;47.620;18.786;2022-09-09T05:39:22;8.60;;;6.20;;
67757;SDS011;54562;47.620;18.786;2022-09-09T05:42:32;10.30;;;7.60;;
67757;SDS011;54562;47.620;18.786;2022-09-09T05:45:41;11.10;;;6.90;;
67757;SDS011;54562;47.620;18.786;2022-09-09T05:48:51;10.90;;;7.30;;
67757;SDS011;54562;47.620;18.786;2022-09-09T05:52:00;10.20;;;7.40;;
67757;SDS011;54562;47.620;18.786;2022-09-09T05:55:12;9.90;;;6.80;;
67757;SDS011;54562;47.620;18.786;2022-09-09T05:58:21;12.30;;;8.00;;
67757;SDS011;54562;47.620;18.786;2022-09-09T06:01:32;10.90;;;7.10;;
67757;SDS011;54562;47.620;18.786;2022-09-09T06:04:45;10.20;;;6.50;;
67757;SDS011;54562;47.620;18.786;2022-09-09T06:07:55;9.30;;;6.30;;
67757;SDS011;54562;47.620;18.786;2022-09-09T06:11:07;12.10;;;6.60;;
67757;SDS011;54562;47.620;18.786;2022-09-09T06:14:20;10.60;;;6.70;;
67757;SDS011;54562;47.620;18.786;2022-09-09T06:17:30;9.90;;;6.80;;
67757;SDS011;54562;47.620;18.786;2022-09-09T06:20:38;12.10;;;7.50;;
67757;SDS011;54562;47.620;18.786;2022-09-09T06:23:47;9.50;;;6.90;;
67757;SDS011;54562;47.620;18.786;2022-09-09T06:26:57;9.60;;;6.80;;
67757;SDS011;54562;47.620;18.786;2022-09-09T06:30:07;10.50;;;7.20;;
67757;SDS011;54562;47.620;18.786;2022-09-09T06:33:16;9.00;;;6.80;;
67757;SDS011;54562;47.620;18.786;2022-09-09T06:36:26;11.60;;;7.00;;
67757;SDS011;54562;47.620;18.786;2022-09-09T06:39:35;10.10;;;7.60;;
67757;SDS011;54562;47.620;18.786;2022-09-09T06:42:44;11.30;;;8.10;;
67757;SDS011;54562;47.620;18.786;2022-09-09T06:45:57;10.40;;;7.90;;
67757;SDS011;54562;47.620;18.786;2022-09-09T06:49:09;11.80;;;8.60;;
67757;SDS011;54562;47.620;18.786;2022-09-09T06:52:22;10.80;;;8.00;;
67757;SDS011;54562;47.620;18.786;2022-09-09T06:55:32;12.50;;;8.70;;
67757;SDS011;54562;47.620;18.786;2022-09-09T06:58:42;12.60;;;8.50;;
67757;SDS011;54562;47.620;18.786;2022-09-09T07:01:50;12.00;;;9.00;;
67757;SDS011;54562;47.620;18.786;2022-09-09T07:08:06;9.80;;;7.40;;
67757;SDS011;54562;47.620;18.786;2022-09-09T07:11:14;10.50;;;8.20;;
67757;SDS011;54562;47.620;18.786;2022-09-09T07:14:23;13.60;;;8.60;;
67757;SDS011;54562;47.620;18.786;2022-09-09T07:17:31;11.20;;;8.70;;
67757;SDS011;54562;47.620;18.786;2022-09-09T07:20:39;10.70;;;8.00;;
67757;SDS011;54562;47.620;18.786;2022-09-09T07:23:47;12.80;;;8.70;;
67757;SDS011;54562;47.620;18.786;2022-09-09T07:26:56;11.70;;;7.90;;
67757;SDS011;54562;47.620;18.786;2022-09-09T07:30:05;10.40;;;7.50;;
67757;SDS011;54562;47.620;18.786;2022-09-09T07:33:24;11.30;;;7.60;;
67757;SDS011;54562;47.620;18.786;2022-09-09T07:36:33;12.40;;;7.90;;
67757;SDS011;54562;47.620;18.786;2022-09-09T07:39:42;10.90;;;6.70;;
67757;SDS011;54562;47.620;18.786;2022-09-09T07:42:51;11.60;;;6.90;;
67757;SDS011;54562;47.620;18.786;2022-09-09T07:46:00;6.70;;;4.60;;
67757;SDS011;54562;47.620;18.786;2022-09-09T07:49:09;9.80;;;4.50;;
67757;SDS011;54562;47.620;18.786;2022-09-09T07:52:19;6.90;;;3.70;;
67757;SDS011;54562;47.620;18.786;2022-09-09T07:55:29;5.90;;;3.90;;
67757;SDS011;54562;47.620;18.786;2022-09-09T07:58:39;5.70;;;3.30;;
67757;SDS011;54562;47.620;18.786;2022-09-09T08:01:48;5.90;;;3.40;;
67757;SDS011;54562;47.620;18.786;2022-09-09T08:04:58;6.70;;;3.50;;
67757;SDS011;54562;47.620;18.786;2022-09-09T08:08:07;5.40;;;3.20;;
67757;SDS011;54562;47.620;18.786;2022-09-09T08:11:16;6.10;;;3.50;;
67757;SDS011;54562;47.620;18.786;2022-09-09T08:14:25;6.80;;;3.30;;
67757;SDS011;54562;47.620;18.786;2022-09-09T08:17:33;6.40;;;3.00;;
67757;SDS011;54562;47.620;18.786;2022-09-09T08:20:42;6.10;;;3.20;;
67757;SDS011;54562;47.620;18.786;2022-09-09T08:23:52;5.30;;;2.90;;
67757;SDS011;54562;47.620;18.786;2022-09-09T08:27:01;5.70;;;3.20;;
67757;SDS011;54562;47.620;18.786;2022-09-09T08:30:12;5.20;;;2.80;;
67757;SDS011;54562;47.620;18.786;2022-09-09T08:33:20;5.10;;;2.30;;
67757;SDS011;54562;47.620;18.786;2022-09-09T08:36:29;7.10;;;3.30;;
67757;SDS011;54562;47.620;18.786;2022-09-09T08:39:39;6.10;;;2.90;;
67757;SDS011;54562;47.620;18.786;2022-09-09T08:42:50;5.00;;;2.60;;
67757;SDS011;54562;47.620;18.786;2022-09-09T08:46:06;5.20;;;2.80;;
67757;SDS011;54562;47.620;18.786;2022-09-09T08:49:34;4.90;;;2.80;;
67757;SDS011;54562;47.620;18.786;2022-09-09T08:53:00;4.80;;;2.60;;
67757;SDS011;54562;47.620;18.786;2022-09-09T08:56:13;4.60;;;2.60;;
67757;SDS011;54562;47.620;18.786;2022-09-09T08:59:25;5.70;;;2.50;;
67757;SDS011;54562;47.620;18.786;2022-09-09T09:02:37;4.10;;;2.20;;
67757;SDS011;54562;47.620;18.786;2022-09-09T09:06:01;5.40;;;2.60;;
67757;SDS011;54562;47.620;18.786;2022-09-09T09:09:21;4.80;;;2.30;;
67757;SDS011;54562;47.620;18.786;2022-09-09T09:12:40;5.00;;;2.00;;
67757;SDS011;54562;47.620;18.786;2022-09-09T09:15:52;6.00;;;2.20;;
67757;SDS011;54562;47.620;18.786;2022-09-09T09:19:04;4.20;;;2.10;;
67757;SDS011;54562;47.620;18.786;2022-09-09T09:22:19;4.30;;;2.20;;
67757;SDS011;54562;47.620;18.786;2022-09-09T09:25:36;5.70;;;2.30;;
67757;SDS011;54562;47.620;18.786;2022-09-09T09:28:47;7.40;;;2.60;;
67757;SDS011;54562;47.620;18.786;2022-09-09T09:31:58;4.50;;;2.50;;
67757;SDS011;54562;47.620;18.786;2022-09-09T09:35:13;5.60;;;2.70;;
67757;SDS011;54562;47.620;18.786;2022-09-09T09:38:23;6.10;;;2.40;;
67757;SDS011;54562;47.620;18.786;2022-09-09T09:41:53;4.30;;;2.20;;
67757;SDS011;54562;47.620;18.786;2022-09-09T09:48:24;4.10;;;1.90;;
67757;SDS011;54562;47.620;18.786;2022-09-09T09:51:34;10.00;;;2.20;;
67757;SDS011;54562;47.620;18.786;2022-09-09T09:57:50;5.10;;;2.10;;
67757;SDS011;54562;47.620;18.786;2022-09-09T10:04:17;4.30;;;2.00;;
67757;SDS011;54562;47.620;18.786;2022-09-09T10:07:28;3.50;;;1.70;;
67757;SDS011;54562;47.620;18.786;2022-09-09T10:10:55;4.10;;;1.80;;
67757;SDS011;54562;47.620;18.786;2022-09-09T10:14:17;3.50;;;1.80;;
67757;SDS011;54562;47.620;18.786;2022-09-09T10:20:58;4.10;;;1.70;;
67757;SDS011;54562;47.620;18.786;2022-09-09T10:24:28;3.80;;;1.70;;
67757;SDS011;54562;47.620;18.786;2022-09-09T10:28:20;5.10;;;1.80;;
67757;SDS011;54562;47.620;18.786;2022-09-09T10:31:49;4.30;;;1.80;;
67757;SDS011;54562;47.620;18.786;2022-09-09T10:35:11;3.90;;;1.70;;
67757;SDS011;54562;47.620;18.786;2022-09-09T10:38:32;3.70;;;1.70;;
67757;SDS011;54562;47.620;18.786;2022-09-09T10:41:52;4.40;;;1.70;;
67757;SDS011;54562;47.620;18.786;2022-09-09T10:45:18;3.60;;;1.50;;
67757;SDS011;54562;47.620;18.786;2022-09-09T10:48:52;4.10;;;1.70;;
67757;SDS011;54562;47.620;18.786;2022-09-09T10:52:15;5.00;;;1.50;;
67757;SDS011;54562;47.620;18.786;2022-09-09T10:55:35;4.20;;;1.60;;
67757;SDS011;54562;47.620;18.786;2022-09-09T10:58:50;3.60;;;1.60;;
67757;SDS011;54562;47.620;18.786;2022-09-09T11:02:10;5.50;;;1.70;;
67757;SDS011;54562;47.620;18.786;2022-09-09T11:05:29;4.50;;;1.60;;
67757;SDS011;54562;47.620;18.786;2022-09-09T11:11:54;3.30;;;1.50;;
67757;SDS011;54562;47.620;18.786;2022-09-09T11:15:12;4.10;;;1.70;;
67757;SDS011;54562;47.620;18.786;2022-09-09T11:18:24;2.80;;;1.50;;
67757;SDS011;54562;47.620;18.786;2022-09-09T11:21:47;6.40;;;1.60;;
67757;SDS011;54562;47.620;18.786;2022-09-09T11:24:59;4.30;;;1.50;;
67757;SDS011;54562;47.620;18.786;2022-09-09T11:32:06;3.70;;;1.40;;
67757;SDS011;54562;47.620;18.786;2022-09-09T11:35:42;4.70;;;1.50;;
67757;SDS011;54562;47.620;18.786;2022-09-09T11:39:05;3.70;;;1.50;;
67757;SDS011;54562;47.620;18.786;2022-09-09T11:42:27;4.40;;;1.60;;
67757;SDS011;54562;47.620;18.786;2022-09-09T11:45:36;2.20;;;1.30;;
67757;SDS011;54562;47.620;18.786;2022-09-09T11:48:57;3.00;;;1.40;;
67757;SDS011;54562;47.620;18.786;2022-09-09T11:52:19;2.80;;;1.50;;
67757;SDS011;54562;47.620;18.786;2022-09-09T11:55:33;2.90;;;1.50;;
67757;SDS011;54562;47.620;18.786;2022-09-09T11:58:53;4.60;;;1.60;;
67757;SDS011;54562;47.620;18.786;2022-09-09T12:02:09;3.70;;;1.60;;
67757;SDS011;54562;47.620;18.786;2022-09-09T12:05:24;2.80;;;1.50;;
67757;SDS011;54562;47.620;18.786;2022-09-09T12:08:48;2.30;;;1.40;;
67757;SDS011;54562;47.620;18.786;2022-09-09T12:12:23;2.60;;;1.40;;
67757;SDS011;54562;47.620;18.786;2022-09-09T12:15:33;4.00;;;1.30;;
67757;SDS011;54562;47.620;18.786;2022-09-09T12:19:02;1.90;;;1.20;;
67757;SDS011;54562;47.620;18.786;2022-09-09T12:22:22;4.60;;;1.30;;
67757;SDS011;54562;47.620;18.786;2022-09-09T12:25:52;2.80;;;1.20;;
67757;SDS011;54562;47.620;18.786;2022-09-09T12:29:20;7.80;;;1.50;;
67757;SDS011;54562;47.620;18.786;2022-09-09T12:32:37;2.30;;;1.20;;
67757;SDS011;54562;47.620;18.786;2022-09-09T12:35:47;2.10;;;1.20;;
67757;SDS011;54562;47.620;18.786;2022-09-09T12:39:15;2.60;;;1.20;;
67757;SDS011;54562;47.620;18.786;2022-09-09T12:42:29;4.20;;;1.40;;
67757;SDS011;54562;47.620;18.786;2022-09-09T12:45:45;3.90;;;1.20;;
67757;SDS011;54562;47.620;18.786;2022-09-09T12:48:55;7.60;;;1.60;;
67757;SDS011;54562;47.620;18.786;2022-09-09T12:52:07;3.80;;;1.50;;
67757;SDS011;54562;47.620;18.786;2022-09-09T12:55:27;2.70;;;1.30;;
67757;SDS011;54562;47.620;18.786;2022-09-09T12:58:39;3.70;;;1.30;;
67757;SDS011;54562;47.620;18.786;2022-09-09T13:02:00;2.50;;;1.20;;
67757;SDS011;54562;47.620;18.786;2022-09-09T13:05:21;2.30;;;1.20;;
67757;SDS011;54562;47.620;18.786;2022-09-09T13:08:31;3.50;;;1.40;;
67757;SDS011;54562;47.620;18.786;2022-09-09T13:11:42;2.40;;;1.20;;
67757;SDS011;54562;47.620;18.786;2022-09-09T13:14:55;4.80;;;1.30;;
67757;SDS011;54562;47.620;18.786;2022-09-09T13:18:11;2.50;;;1.20;;
67757;SDS011;54562;47.620;18.786;2022-09-09T13:21:34;3.00;;;1.30;;
67757;SDS011;54562;47.620;18.786;2022-09-09T13:24:45;2.70;;;1.30;;
67757;SDS011;54562;47.620;18.786;2022-09-09T13:28:01;2.80;;;1.30;;
67757;SDS011;54562;47.620;18.786;2022-09-09T13:31:23;2.50;;;1.20;;
67757;SDS011;54562;47.620;18.786;2022-09-09T13:34:35;3.50;;;1.20;;
67757;SDS011;54562;47.620;18.786;2022-09-09T13:37:43;4.30;;;1.40;;
67757;SDS011;54562;47.620;18.786;2022-09-09T13:40:57;2.60;;;1.30;;
67757;SDS011;54562;47.620;18.786;2022-09-09T13:44:16;2.40;;;1.30;;
67757;SDS011;54562;47.620;18.786;2022-09-09T13:47:32;1.90;;;1.20;;
67757;SDS011;54562;47.620;18.786;2022-09-09T13:50:42;4.20;;;1.30;;
67757;SDS011;54562;47.620;18.786;2022-09-09T13:53:59;4.50;;;1.30;;
67757;SDS011;54562;47.620;18.786;2022-09-09T13:57:16;3.80;;;1.30;;
67757;SDS011;54562;47.620;18.786;2022-09-09T14:00:26;2.50;;;1.40;;
67757;SDS011;54562;47.620;18.786;2022-09-09T14:03:35;8.90;;;1.70;;
67757;SDS011;54562;47.620;18.786;2022-09-09T14:06:43;3.40;;;1.20;;
67757;SDS011;54562;47.620;18.786;2022-09-09T14:09:51;1.80;;;1.20;;
67757;SDS011;54562;47.620;18.786;2022-09-09T14:12:59;2.30;;;1.20;;
67757;SDS011;54562;47.620;18.786;2022-09-09T14:16:07;2.80;;;1.20;;
67757;SDS011;54562;47.620;18.786;2022-09-09T14:19:15;3.40;;;1.40;;
67757;SDS011;54562;47.620;18.786;2022-09-09T14:22:24;2.70;;;1.20;;
67757;SDS011;54562;47.620;18.786;2022-09-09T14:25:33;3.60;;;1.40;;
67757;SDS011;54562;47.620;18.786;2022-09-09T14:28:41;5.50;;;1.40;;
67757;SDS011;54562;47.620;18.786;2022-09-09T14:32:06;4.20;;;1.20;;
67757;SDS011;54562;47.620;18.786;2022-09-09T14:35:17;4.10;;;1.30;;
67757;SDS011;54562;47.620;18.786;2022-09-09T14:38:26;3.80;;;1.30;;
67757;SDS011;54562;47.620;18.786;2022-09-09T14:41:36;2.80;;;1.30;;
67757;SDS011;54562;47.620;18.786;2022-09-09T14:44:44;4.80;;;1.50;;
67757;SDS011;54562;47.620;18.786;2022-09-09T14:47:53;3.80;;;1.50;;
67757;SDS011;54562;47.620;18.786;2022-09-09T14:51:08;6.20;;;1.40;;
67757;SDS011;54562;47.620;18.786;2022-09-09T14:54:17;11.30;;;1.80;;
67757;SDS011;54562;47.620;18.786;2022-09-09T14:57:26;3.60;;;1.50;;
67757;SDS011;54562;47.620;18.786;2022-09-09T15:00:35;4.30;;;1.50;;
67757;SDS011;54562;47.620;18.786;2022-09-09T15:03:50;3.70;;;1.30;;
67757;SDS011;54562;47.620;18.786;2022-09-09T15:07:00;8.10;;;1.50;;
67757;SDS011;54562;47.620;18.786;2022-09-09T15:10:09;5.80;;;1.60;;
67757;SDS011;54562;47.620;18.786;2022-09-09T15:13:17;2.50;;;1.40;;
67757;SDS011;54562;47.620;18.786;2022-09-09T15:16:27;3.40;;;1.40;;
67757;SDS011;54562;47.620;18.786;2022-09-09T15:19:36;8.10;;;1.50;;
67757;SDS011;54562;47.620;18.786;2022-09-09T15:22:46;2.80;;;1.40;;
67757;SDS011;54562;47.620;18.786;2022-09-09T15:25:56;2.80;;;1.30;;
67757;SDS011;54562;47.620;18.786;2022-09-09T15:29:04;10.90;;;1.70;;
67757;SDS011;54562;47.620;18.786;2022-09-09T15:32:14;6.70;;;1.70;;
67757;SDS011;54562;47.620;18.786;2022-09-09T15:35:22;4.00;;;1.40;;
67757;SDS011;54562;47.620;18.786;2022-09-09T15:38:32;7.20;;;1.60;;
67757;SDS011;54562;47.620;18.786;2022-09-09T15:41:41;4.10;;;1.30;;
67757;SDS011;54562;47.620;18.786;2022-09-09T15:44:49;3.30;;;1.40;;
67757;SDS011;54562;47.620;18.786;2022-09-09T15:47:58;2.60;;;1.30;;
67757;SDS011;54562;47.620;18.786;2022-09-09T15:51:06;4.80;;;1.50;;
67757;SDS011;54562;47.620;18.786;2022-09-09T15:54:37;4.50;;;1.50;;
67757;SDS011;54562;47.620;18.786;2022-09-09T15:57:48;3.70;;;1.40;;
67757;SDS011;54562;47.620;18.786;2022-09-09T16:01:03;3.80;;;1.40;;
67757;SDS011;54562;47.620;18.786;2022-09-09T16:04:12;3.60;;;1.30;;
67757;SDS011;54562;47.620;18.786;2022-09-09T16:07:28;11.80;;;1.80;;
67757;SDS011;54562;47.620;18.786;2022-09-09T16:10:36;5.40;;;1.50;;
67757;SDS011;54562;47.620;18.786;2022-09-09T16:13:45;9.80;;;1.70;;
67757;SDS011;54562;47.620;18.786;2022-09-09T16:16:55;6.40;;;1.60;;
67757;SDS011;54562;47.620;18.786;2022-09-09T16:20:03;3.70;;;1.50;;
67757;SDS011;54562;47.620;18.786;2022-09-09T16:23:13;4.60;;;1.60;;
67757;SDS011;54562;47.620;18.786;2022-09-09T16:26:22;4.10;;;1.50;;
67757;SDS011;54562;47.620;18.786;2022-09-09T16:29:30;7.30;;;1.50;;
67757;SDS011;54562;47.620;18.786;2022-09-09T16:32:39;5.80;;;1.60;;
67757;SDS011;54562;47.620;18.786;2022-09-09T16:35:47;3.80;;;1.60;;
67757;SDS011;54562;47.620;18.786;2022-09-09T16:38:58;4.20;;;1.50;;
67757;SDS011;54562;47.620;18.786;2022-09-09T16:42:07;9.40;;;1.90;;
67757;SDS011;54562;47.620;18.786;2022-09-09T16:45:20;5.50;;;1.60;;
67757;SDS011;54562;47.620;18.786;2022-09-09T16:48:32;4.60;;;1.50;;
67757;SDS011;54562;47.620;18.786;2022-09-09T16:51:42;5.90;;;1.60;;
67757;SDS011;54562;47.620;18.786;2022-09-09T16:54:51;6.30;;;1.80;;
67757;SDS011;54562;47.620;18.786;2022-09-09T16:57:59;4.90;;;1.70;;
67757;SDS011;54562;47.620;18.786;2022-09-09T17:01:09;11.80;;;2.30;;
67757;SDS011;54562;47.620;18.786;2022-09-09T17:04:21;6.20;;;1.90;;
67757;SDS011;54562;47.620;18.786;2022-09-09T17:07:32;8.60;;;1.80;;
67757;SDS011;54562;47.620;18.786;2022-09-09T17:10:44;8.20;;;1.90;;
67757;SDS011;54562;47.620;18.786;2022-09-09T17:13:55;5.00;;;1.90;;
67757;SDS011;54562;47.620;18.786;2022-09-09T17:17:05;10.30;;;2.80;;
67757;SDS011;54562;47.620;18.786;2022-09-09T17:20:36;10.00;;;2.40;;
67757;SDS011;54562;47.620;18.786;2022-09-09T17:23:51;5.90;;;1.90;;
67757;SDS011;54562;47.620;18.786;2022-09-09T17:27:00;7.20;;;1.90;;
67757;SDS011;54562;47.620;18.786;2022-09-09T17:30:10;5.40;;;2.00;;
67757;SDS011;54562;47.620;18.786;2022-09-09T17:33:19;5.80;;;1.80;;
67757;SDS011;54562;47.620;18.786;2022-09-09T17:36:30;4.10;;;1.70;;
67757;SDS011;54562;47.620;18.786;2022-09-09T17:39:41;6.20;;;1.90;;
67757;SDS011;54562;47.620;18.786;2022-09-09T17:42:49;4.90;;;1.80;;
67757;SDS011;54562;47.620;18.786;2022-09-09T17:46:06;4.30;;;1.90;;
67757;SDS011;54562;47.620;18.786;2022-09-09T17:49:17;3.90;;;1.90;;
67757;SDS011;54562;47.620;18.786;2022-09-09T17:52:25;5.60;;;1.80;;
67757;SDS011;54562;47.620;18.786;2022-09-09T17:55:35;5.20;;;1.90;;
67757;SDS011;54562;47.620;18.786;2022-09-09T17:58:44;8.00;;;1.80;;
67757;SDS011;54562;47.620;18.786;2022-09-09T18:01:53;7.90;;;1.60;;
67757;SDS011;54562;47.620;18.786;2022-09-09T18:05:01;6.50;;;2.00;;
67757;SDS011;54562;47.620;18.786;2022-09-09T18:08:10;4.80;;;1.80;;
67757;SDS011;54562;47.620;18.786;2022-09-09T18:11:20;5.00;;;1.50;;
67757;SDS011;54562;47.620;18.786;2022-09-09T18:14:32;4.10;;;1.70;;
67757;SDS011;54562;47.620;18.786;2022-09-09T18:17:40;7.70;;;1.80;;
67757;SDS011;54562;47.620;18.786;2022-09-09T18:20:58;3.70;;;1.60;;
67757;SDS011;54562;47.620;18.786;2022-09-09T18:24:08;4.10;;;1.70;;
67757;SDS011;54562;47.620;18.786;2022-09-09T18:27:18;8.00;;;1.90;;
67757;SDS011;54562;47.620;18.786;2022-09-09T18:30:26;8.50;;;2.10;;
67757;SDS011;54562;47.620;18.786;2022-09-09T18:33:37;5.20;;;1.90;;
67757;SDS011;54562;47.620;18.786;2022-09-09T18:36:49;4.60;;;1.80;;
67757;SDS011;54562;47.620;18.786;2022-09-09T18:39:59;7.20;;;1.80;;
67757;SDS011;54562;47.620;18.786;2022-09-09T18:43:09;5.30;;;2.30;;
67757;SDS011;54562;47.620;18.786;2022-09-09T18:46:18;5.10;;;2.10;;
67757;SDS011;54562;47.620;18.786;2022-09-09T18:49:27;5.30;;;2.10;;
67757;SDS011;54562;47.620;18.786;2022-09-09T18:52:35;5.20;;;2.00;;
67757;SDS011;54562;47.620;18.786;2022-09-09T18:55:42;5.00;;;1.90;;
67757;SDS011;54562;47.620;18.786;2022-09-09T18:58:53;5.20;;;2.10;;
67757;SDS011;54562;47.620;18.786;2022-09-09T19:02:02;6.50;;;2.10;;
67757;SDS011;54562;47.620;18.786;2022-09-09T19:05:11;5.60;;;1.90;;
67757;SDS011;54562;47.620;18.786;2022-09-09T19:08:19;5.50;;;2.10;;
67757;SDS011;54562;47.620;18.786;2022-09-09T19:11:29;5.80;;;2.00;;
67757;SDS011;54562;47.620;18.786;2022-09-09T19:14:38;4.80;;;2.10;;
67757;SDS011;54562;47.620;18.786;2022-09-09T19:17:47;4.80;;;1.90;;
67757;SDS011;54562;47.620;18.786;2022-09-09T19:21:06;6.00;;;2.10;;
67757;SDS011;54562;47.620;18.786;2022-09-09T19:24:19;6.30;;;1.70;;
67757;SDS011;54562;47.620;18.786;2022-09-09T19:27:28;5.70;;;1.80;;